Golden Pond, Kentucky
Current Conditions -  °F | °C
As of 12:58 PM on Sunday 21 Dec 2014 (Local Time) from KHOP Reporting Station
Clear Clear  
Wind Chill: 45°   Ceiling: Unl
Heat Index: 48°   Visibility: 10mi
Dew Point: 30°   Wind: 7mph
Humidity: 51%   Direction: 100°E
Pressure: 30.13"   Gusts: NA
Location:  36.8031°N, 87.8159°W
Report Text: KHOP 211858Z AUTO 10006KT 10SM CLR 09/M01 A3013 RMK AO2 SLP208 T00891009
Loading
Personal Weather Stations






























Interactive Weather Map New forecast layout! Learn more

10-Day Weather Forecast

Advertisements
Track Severe Weather on mobile